Time;durP1;ratioP1;P1;durP2;ratioP2;P2;SDS_P1;SDS_P2;PMS_P1;PMS_P2;Temp;Humidity;BMP_temperature;BMP_pressure;BME280_temperature;BME280_humidity;BME280_pressure;Samples;Min_cycle;Max_cycle;Signal;HPM_P1;HPM_P2
2021/03/14 00:00:57;;;;;;;10.95;1.88;;;4.40;98.10;;;;;;5036114;28;20474;-68
2021/03/14 00:03:25;;;;;;;10.70;2.50;;;4.40;97.70;;;;;;5034520;28;20112;-68
2021/03/14 00:05:52;;;;;;;5.50;2.03;;;4.40;98.10;;;;;;5036318;28;20033;-68
2021/03/14 00:08:19;;;;;;;8.65;1.90;;;4.40;98.10;;;;;;5036053;28;20129;-68
2021/03/14 00:10:56;;;;;;;447.73;238.13;;;4.40;97.90;;;;;;5038996;28;20372;-67
2021/03/14 00:13:31;;;;;;;155.20;61.67;;;4.30;98.10;;;;;;5036340;28;20056;-68
2021/03/14 00:15:57;;;;;;;9.82;4.78;;;4.40;98.20;;;;;;5038521;28;20071;-68
2021/03/14 00:18:43;;;;;;;7.97;2.58;;;4.40;98.20;;;;;;5036156;28;20053;-67
2021/03/14 00:21:28;;;;;;;10.23;2.15;;;4.40;97.90;;;;;;5033360;28;20685;-70
2021/03/14 00:23:54;;;;;;;14.20;3.65;;;4.40;98.00;;;;;;5037495;28;20034;-67
2021/03/14 00:26:19;;;;;;;5.80;2.75;;;4.40;98.00;;;;;;5039846;28;20061;-67
2021/03/14 00:28:45;;;;;;;12.13;2.70;;;4.40;98.00;;;;;;5036580;28;20628;-68
2021/03/14 00:31:11;;;;;;;9.57;3.28;;;4.40;98.10;;;;;;5033853;28;20033;-68
2021/03/14 00:33:37;;;;;;;13.70;3.38;;;4.40;98.30;;;;;;5036283;28;20523;-68
2021/03/14 00:36:02;;;;;;;13.50;2.90;;;4.40;98.10;;;;;;5035290;28;20027;-67
2021/03/14 00:38:28;;;;;;;16.33;4.03;;;4.50;98.20;;;;;;5037131;28;20666;-68
2021/03/14 00:40:54;;;;;;;20.70;3.33;;;4.50;98.00;;;;;;5037665;28;20029;-69
2021/03/14 00:43:19;;;;;;;14.15;2.78;;;4.50;98.10;;;;;;5036377;28;20044;-68
2021/03/14 00:45:45;;;;;;;8.98;2.50;;;4.50;98.10;;;;;;5037270;28;20036;-69
2021/03/14 00:48:11;;;;;;;8.25;2.10;;;4.60;98.00;;;;;;5034906;28;20539;-68
2021/03/14 00:50:39;;;;;;;10.02;1.33;;;4.50;98.00;;;;;;5037115;28;20036;-68
2021/03/14 00:53:05;;;;;;;10.10;1.67;;;4.50;97.80;;;;;;5031837;28;20025;-68
2021/03/14 00:55:31;;;;;;;3.97;1.30;;;4.40;97.90;;;;;;5033942;28;20030;-68
2021/03/14 00:57:57;;;;;;;5.22;1.52;;;4.40;97.80;;;;;;5036442;28;20060;-68
2021/03/14 01:00:23;;;;;;;8.23;1.60;;;4.40;97.80;;;;;;5036012;28;20032;-68
2021/03/14 01:02:49;;;;;;;5.93;1.70;;;4.40;97.80;;;;;;5035291;28;20426;-68
2021/03/14 01:05:14;;;;;;;4.22;1.40;;;4.40;97.80;;;;;;5039258;28;20033;-68
2021/03/14 01:07:40;;;;;;;5.70;1.30;;;4.30;98.10;;;;;;5037889;28;20030;-68
2021/03/14 01:10:07;;;;;;;7.03;1.33;;;4.30;98.00;;;;;;5035591;28;20036;-68
2021/03/14 01:12:33;;;;;;;5.10;1.45;;;4.30;97.90;;;;;;5036492;28;20025;-68
2021/03/14 01:14:59;;;;;;;4.63;1.27;;;4.30;97.80;;;;;;5037196;28;20032;-68
2021/03/14 01:17:25;;;;;;;4.80;1.30;;;4.30;97.80;;;;;;5036568;28;20033;-68
2021/03/14 01:19:50;;;;;;;3.92;1.17;;;4.30;97.80;;;;;;5040620;28;20513;-68
2021/03/14 01:22:16;;;;;;;5.47;1.48;;;4.30;97.60;;;;;;5036893;28;20049;-68
2021/03/14 01:24:42;;;;;;;9.80;1.98;;;4.20;97.70;;;;;;5038167;28;20044;-67
2021/03/14 01:27:07;;;;;;;4.10;1.42;;;4.20;97.90;;;;;;5033764;28;20040;-69
2021/03/14 01:29:34;;;;;;;9.07;1.88;;;4.20;97.90;;;;;;5040877;28;20040;-68
2021/03/14 01:31:59;;;;;;;4.05;2.00;;;4.20;98.10;;;;;;5036850;28;20025;-68
2021/03/14 01:34:25;;;;;;;6.57;1.98;;;4.20;98.20;;;;;;5041415;28;20021;-68
2021/03/14 01:36:52;;;;;;;9.98;2.00;;;4.20;98.30;;;;;;5039428;28;20036;-67
2021/03/14 01:39:18;;;;;;;7.93;1.77;;;4.20;98.20;;;;;;5039395;28;20104;-68
2021/03/14 01:41:44;;;;;;;7.03;2.17;;;4.20;98.30;;;;;;5038435;28;21247;-69
2021/03/14 01:44:10;;;;;;;11.18;2.17;;;4.20;98.30;;;;;;5040618;28;20061;-69
2021/03/14 01:46:35;;;;;;;10.60;2.22;;;4.20;98.10;;;;;;5038863;28;20029;-68
2021/03/14 01:49:02;;;;;;;5.63;2.08;;;4.20;98.10;;;;;;5039410;28;20032;-67
2021/03/14 01:51:28;;;;;;;9.13;1.98;;;4.20;98.10;;;;;;5039684;28;20030;-68
2021/03/14 01:53:54;;;;;;;15.73;2.58;;;4.20;98.20;;;;;;5031492;28;20083;-68
2021/03/14 01:56:20;;;;;;;7.93;2.15;;;4.20;98.20;;;;;;5039702;28;20022;-68
2021/03/14 01:58:48;;;;;;;14.98;2.72;;;4.20;98.20;;;;;;5030382;28;20441;-67
2021/03/14 02:01:14;;;;;;;8.30;2.05;;;4.20;98.30;;;;;;5032888;28;20042;-68
2021/03/14 02:03:40;;;;;;;18.35;2.97;;;4.30;98.20;;;;;;5037684;28;20044;-68
2021/03/14 02:06:06;;;;;;;10.93;2.83;;;4.30;98.10;;;;;;5040803;28;20029;-68
2021/03/14 02:08:32;;;;;;;10.57;2.50;;;4.30;97.90;;;;;;5036825;28;20421;-67
2021/03/14 02:11:01;;;;;;;13.57;2.65;;;4.30;97.80;;;;;;5040317;28;20029;-68
2021/03/14 02:13:29;;;;;;;15.38;2.65;;;4.30;98.00;;;;;;5037195;28;20033;-68
2021/03/14 02:16:13;;;;;;;10.13;2.67;;;4.30;97.90;;;;;;5035021;28;20100;-68
2021/03/14 02:18:41;;;;;;;12.48;2.88;;;4.30;97.90;;;;;;5043508;28;20374;-68
2021/03/14 02:21:08;;;;;;;17.65;2.90;;;4.30;97.80;;;;;;5040049;28;20113;-68
2021/03/14 02:23:43;;;;;;;9.13;2.40;;;4.30;97.90;;;;;;5034898;28;20379;-68
2021/03/14 02:26:29;;;;;;;12.77;2.78;;;4.30;97.80;;;;;;5037715;28;20038;-69
2021/03/14 02:28:55;;;;;;;14.18;3.40;;;4.30;98.00;;;;;;5039813;28;20379;-67
2021/03/14 02:31:26;;;;;;;14.55;3.08;;;4.30;98.10;;;;;;5037829;28;20030;-68
2021/03/14 02:34:23;;;;;;;15.73;3.75;;;4.30;98.20;;;;;;5036951;28;20845;-68
2021/03/14 02:36:50;;;;;;;22.27;4.85;;;4.30;98.30;;;;;;5027057;28;20037;-68
2021/03/14 02:39:20;;;;;;;21.67;4.72;;;4.30;98.50;;;;;;5036676;28;20499;-68
2021/03/14 02:41:48;;;;;;;25.52;4.93;;;4.30;98.60;;;;;;5035188;28;20049;-68
2021/03/14 02:44:17;;;;;;;21.42;5.65;;;4.40;98.50;;;;;;5038818;28;20037;-68
2021/03/14 02:46:44;;;;;;;17.02;4.40;;;4.40;98.40;;;;;;5038250;28;20048;-69
2021/03/14 02:49:11;;;;;;;13.05;3.60;;;4.40;98.20;;;;;;5036837;28;20037;-68
2021/03/14 02:51:39;;;;;;;24.95;4.18;;;4.50;98.20;;;;;;5035291;28;20068;-68
2021/03/14 02:54:07;;;;;;;26.73;4.35;;;4.40;98.00;;;;;;5037907;28;20030;-68
2021/03/14 02:56:33;;;;;;;18.63;3.92;;;4.40;98.20;;;;;;5038970;28;20071;-68
2021/03/14 02:59:01;;;;;;;13.00;3.42;;;4.50;98.30;;;;;;5037874;28;20084;-68
2021/03/14 03:01:28;;;;;;;22.90;4.53;;;4.50;98.10;;;;;;5038426;28;20526;-68
2021/03/14 03:03:59;;;;;;;19.35;4.18;;;4.50;97.70;;;;;;5036473;28;20092;-67
2021/03/14 03:06:26;;;;;;;16.23;3.88;;;4.50;97.80;;;;;;5037843;28;20034;-68
2021/03/14 03:08:52;;;;;;;15.52;4.57;;;4.40;97.70;;;;;;5041146;28;20041;-68
2021/03/14 03:11:18;;;;;;;20.58;4.50;;;4.50;97.60;;;;;;5039909;28;20032;-69
2021/03/14 03:13:44;;;;;;;13.75;3.55;;;4.50;97.50;;;;;;5042575;28;20021;-68
2021/03/14 03:16:18;;;;;;;14.18;3.33;;;4.40;97.40;;;;;;5038089;28;20539;-68
2021/03/14 03:18:45;;;;;;;17.85;3.80;;;4.40;97.50;;;;;;5034844;28;20022;-68
2021/03/14 03:21:11;;;;;;;11.57;3.45;;;4.30;97.60;;;;;;5037152;28;20082;-68
2021/03/14 03:23:37;;;;;;;15.43;3.70;;;4.40;97.40;;;;;;5039391;28;20544;-67
2021/03/14 03:26:05;;;;;;;13.50;4.18;;;4.30;97.30;;;;;;5040103;28;20116;-68
2021/03/14 03:28:30;;;;;;;12.35;3.90;;;4.30;97.30;;;;;;5032925;28;20036;-68
2021/03/14 03:30:57;;;;;;;21.60;4.50;;;4.30;97.40;;;;;;5036482;28;20036;-68
2021/03/14 03:33:22;;;;;;;9.80;3.33;;;4.30;97.20;;;;;;5032539;28;20048;-69
2021/03/14 03:35:49;;;;;;;19.40;4.60;;;4.30;97.30;;;;;;5038563;28;20478;-67
2021/03/14 03:38:15;;;;;;;14.82;3.70;;;4.30;97.20;;;;;;5034067;28;20037;-68
2021/03/14 03:40:41;;;;;;;10.43;3.15;;;4.30;97.20;;;;;;5037176;28;20033;-68
2021/03/14 03:43:09;;;;;;;17.35;3.38;;;4.30;97.30;;;;;;5036212;28;20430;-68
2021/03/14 03:45:42;;;;;;;12.85;3.15;;;4.30;96.70;;;;;;5034811;28;20029;-69
2021/03/14 03:48:12;;;;;;;13.00;3.15;;;4.30;97.00;;;;;;5037417;28;20060;-68
2021/03/14 03:50:38;;;;;;;9.73;3.17;;;4.40;96.50;;;;;;5034483;28;20032;-69
2021/03/14 03:53:05;;;;;;;15.30;3.53;;;4.40;96.60;;;;;;5035266;28;20083;-68
2021/03/14 03:55:31;;;;;;;12.50;3.20;;;4.40;96.40;;;;;;5038462;28;20498;-68
2021/03/14 03:57:58;;;;;;;9.60;3.45;;;4.40;96.30;;;;;;5030277;28;20033;-68
2021/03/14 04:00:24;;;;;;;15.63;4.45;;;4.40;96.10;;;;;;5032776;28;20033;-67
2021/03/14 04:02:53;;;;;;;10.55;3.42;;;4.40;96.10;;;;;;5021265;28;20029;-68
2021/03/14 04:05:19;;;;;;;18.33;3.53;;;4.40;96.10;;;;;;5027248;28;20025;-68
2021/03/14 04:07:48;;;;;;;13.38;3.13;;;4.50;95.80;;;;;;5027237;28;20038;-68
2021/03/14 04:10:18;;;;;;;16.23;4.07;;;4.50;96.10;;;;;;5026476;28;20037;-68
2021/03/14 04:12:47;;;;;;;15.52;3.78;;;4.50;96.50;;;;;;5026211;28;20395;-68
2021/03/14 04:15:18;;;;;;;11.95;3.08;;;4.50;96.20;;;;;;5036881;28;20057;-68
2021/03/14 04:17:45;;;;;;;8.30;2.95;;;4.50;96.50;;;;;;5030605;28;20048;-68
2021/03/14 04:20:17;;;;;;;12.30;3.17;;;4.50;96.30;;;;;;5037864;28;20025;-68
2021/03/14 04:22:46;;;;;;;10.85;3.38;;;4.60;96.20;;;;;;5029480;28;20388;-68
2021/03/14 04:25:14;;;;;;;17.13;3.33;;;4.60;96.40;;;;;;5039274;28;20359;-68
2021/03/14 04:27:45;;;;;;;15.70;2.97;;;4.60;96.50;;;;;;5034176;28;20491;-69
2021/03/14 04:30:11;;;;;;;13.15;3.13;;;4.60;96.10;;;;;;5033643;28;20116;-67
2021/03/14 04:32:37;;;;;;;19.00;3.90;;;4.60;96.50;;;;;;5026978;28;20047;-68
2021/03/14 04:35:05;;;;;;;16.48;3.58;;;4.60;96.30;;;;;;5030850;28;20399;-68
2021/03/14 04:37:32;;;;;;;13.65;3.40;;;4.60;96.20;;;;;;5034428;28;20024;-68
2021/03/14 04:39:58;;;;;;;18.92;3.50;;;4.70;96.00;;;;;;5036689;28;20121;-68
2021/03/14 04:42:24;;;;;;;18.80;4.13;;;4.70;96.30;;;;;;5033867;28;20033;-68
2021/03/14 04:44:50;;;;;;;12.63;3.25;;;4.70;96.10;;;;;;5035300;28;20028;-68
2021/03/14 04:47:17;;;;;;;14.75;3.78;;;4.70;96.50;;;;;;5036160;28;20455;-67
2021/03/14 04:49:42;;;;;;;11.27;3.58;;;4.80;95.90;;;;;;5032037;28;20059;-68
2021/03/14 04:52:09;;;;;;;18.42;4.07;;;4.80;95.90;;;;;;5037306;28;20075;-68
2021/03/14 04:54:38;;;;;;;14.70;3.45;;;4.80;96.30;;;;;;5034384;28;20017;-68
2021/03/14 04:57:04;;;;;;;18.67;5.32;;;4.80;96.10;;;;;;5036512;28;20032;-68
2021/03/14 04:59:32;;;;;;;16.95;3.65;;;4.80;96.40;;;;;;5036881;28;20079;-69
2021/03/14 05:01:59;;;;;;;13.95;3.88;;;4.80;96.60;;;;;;5036607;28;20486;-68
2021/03/14 05:04:28;;;;;;;17.10;3.92;;;4.80;96.70;;;;;;5039576;28;20071;-68
2021/03/14 05:06:54;;;;;;;14.82;4.15;;;4.80;96.70;;;;;;5038824;28;20029;-68
2021/03/14 05:09:20;;;;;;;18.45;3.40;;;4.80;96.50;;;;;;5040810;28;20514;-68
2021/03/14 05:11:48;;;;;;;11.98;3.15;;;5.00;95.60;;;;;;5042152;28;20045;-68
2021/03/14 05:14:14;;;;;;;10.40;3.00;;;4.90;95.30;;;;;;5040638;28;20894;-68
2021/03/14 05:16:43;;;;;;;14.98;3.17;;;5.00;94.90;;;;;;5039726;28;20218;-68
2021/03/14 05:19:09;;;;;;;14.65;3.22;;;4.90;95.60;;;;;;5039893;28;20160;-68
2021/03/14 05:21:36;;;;;;;15.25;3.03;;;4.90;95.20;;;;;;5038817;28;20083;-68
2021/03/14 05:24:03;;;;;;;23.45;4.30;;;4.90;95.40;;;;;;5040864;28;20041;-68
2021/03/14 05:26:30;;;;;;;10.80;2.85;;;4.90;95.20;;;;;;5039992;28;20033;-68
2021/03/14 05:28:57;;;;;;;15.23;3.33;;;4.90;94.90;;;;;;5039909;28;20033;-67
2021/03/14 05:31:36;;;;;;;16.00;3.47;;;4.90;95.40;;;;;;5041796;28;20033;-68
2021/03/14 05:34:05;;;;;;;16.67;3.13;;;5.00;94.90;;;;;;5037858;28;20029;-68
2021/03/14 05:36:31;;;;;;;19.55;4.45;;;5.00;94.90;;;;;;5037395;28;20025;-68
2021/03/14 05:38:59;;;;;;;14.65;3.95;;;5.00;95.10;;;;;;5038437;28;20386;-68
2021/03/14 05:41:26;;;;;;;22.25;4.18;;;5.00;95.40;;;;;;5043415;28;20043;-68
2021/03/14 05:43:52;;;;;;;17.90;3.80;;;5.00;95.70;;;;;;5037600;28;20112;-69
2021/03/14 05:46:19;;;;;;;16.90;4.10;;;5.00;95.60;;;;;;5037341;28;20035;-67
2021/03/14 05:48:48;;;;;;;15.05;3.45;;;5.00;95.40;;;;;;5038541;28;20367;-68
2021/03/14 05:51:25;;;;;;;16.85;3.45;;;5.10;95.40;;;;;;5038362;28;20033;-68
2021/03/14 05:53:53;;;;;;;23.38;4.50;;;5.10;95.60;;;;;;5034787;28;20040;-68
2021/03/14 05:56:20;;;;;;;17.35;3.78;;;5.00;95.80;;;;;;5041321;28;20029;-68
2021/03/14 05:58:50;;;;;;;16.33;3.72;;;5.00;95.90;;;;;;5037402;28;20029;-68
2021/03/14 06:01:18;;;;;;;20.80;3.65;;;5.00;95.60;;;;;;5039630;28;20040;-68
2021/03/14 06:03:44;;;;;;;18.42;3.70;;;5.10;95.70;;;;;;5035188;28;20075;-68
2021/03/14 06:06:11;;;;;;;18.10;3.67;;;5.00;96.10;;;;;;5039603;28;20038;-68
2021/03/14 06:08:38;;;;;;;10.52;3.35;;;5.10;95.80;;;;;;5038134;28;20037;-68
2021/03/14 06:11:09;;;;;;;23.30;4.15;;;5.00;96.30;;;;;;5034239;28;20044;-68
2021/03/14 06:13:35;;;;;;;17.90;4.28;;;5.00;96.10;;;;;;5036540;28;20440;-68
2021/03/14 06:16:01;;;;;;;13.48;3.22;;;5.00;96.00;;;;;;5035696;28;20103;-68
2021/03/14 06:18:28;;;;;;;15.90;3.47;;;5.00;96.10;;;;;;5039641;28;20033;-69
2021/03/14 06:20:54;;;;;;;11.55;2.95;;;5.10;95.70;;;;;;5034025;28;20021;-68
2021/03/14 06:23:23;;;;;;;15.90;3.35;;;5.10;95.90;;;;;;5039006;28;20036;-68
2021/03/14 06:25:52;;;;;;;20.42;3.88;;;5.10;95.70;;;;;;5038802;28;20025;-68
2021/03/14 06:28:34;;;;;;;20.90;3.70;;;5.20;95.60;;;;;;5039570;28;20112;-68
2021/03/14 06:31:21;;;;;;;20.52;4.50;;;5.10;95.90;;;;;;5038060;28;20060;-68
2021/03/14 06:33:47;;;;;;;16.42;4.10;;;5.20;96.00;;;;;;5037104;28;20406;-68
2021/03/14 06:36:21;;;;;;;18.77;3.55;;;5.20;96.10;;;;;;5035564;28;20024;-68
2021/03/14 06:38:49;;;;;;;26.20;5.75;;;5.20;96.30;;;;;;5038176;28;20057;-68
2021/03/14 06:41:20;;;;;;;25.17;4.68;;;5.20;96.40;;;;;;5038307;28;20055;-69
2021/03/14 06:43:57;;;;;;;26.90;5.07;;;5.20;96.40;;;;;;5037076;28;20170;-68
2021/03/14 06:46:31;;;;;;;17.65;4.70;;;5.20;96.10;;;;;;5035589;28;20044;-68
2021/03/14 06:49:09;;;;;;;26.23;4.20;;;5.20;96.20;;;;;;5036120;28;20036;-68
2021/03/14 06:51:44;;;;;;;20.15;4.25;;;5.20;96.20;;;;;;5034892;28;20032;-68
2021/03/14 06:54:26;;;;;;;20.83;4.07;;;5.30;96.10;;;;;;5040992;28;20045;-68
2021/03/14 06:57:14;;;;;;;16.10;3.42;;;5.30;96.30;;;;;;5040781;28;20025;-68
2021/03/14 06:59:48;;;;;;;18.00;4.03;;;5.30;96.40;;;;;;5037010;28;20108;-68
2021/03/14 07:02:15;;;;;;;21.77;3.65;;;5.30;96.20;;;;;;5036613;28;20060;-68
2021/03/14 07:04:52;;;;;;;25.45;4.43;;;5.30;96.20;;;;;;5035796;28;20076;-68
2021/03/14 07:07:37;;;;;;;19.77;4.00;;;5.30;96.30;;;;;;5035914;28;20600;-68
2021/03/14 07:10:08;;;;;;;19.05;3.20;;;5.30;96.80;;;;;;5038648;28;20111;-68
2021/03/14 07:12:39;;;;;;;18.70;3.72;;;5.40;96.50;;;;;;5037910;28;20022;-68
2021/03/14 07:15:21;;;;;;;19.23;4.18;;;5.30;96.10;;;;;;5037401;28;20021;-68
2021/03/14 07:17:53;;;;;;;23.90;4.45;;;5.30;96.10;;;;;;5033450;28;20116;-68
2021/03/14 07:20:22;;;;;;;21.10;3.35;;;5.30;96.40;;;;;;5037650;28;20021;-68
2021/03/14 07:22:58;;;;;;;24.88;4.63;;;5.40;96.10;;;;;;5032532;28;20025;-68
2021/03/14 07:25:25;;;;;;;18.50;3.42;;;5.40;96.10;;;;;;5038231;28;20029;-68
2021/03/14 07:27:51;;;;;;;14.57;3.33;;;5.40;96.20;;;;;;5038997;28;20028;-68
2021/03/14 07:30:19;;;;;;;15.60;3.63;;;5.40;96.30;;;;;;5044334;28;20037;-68
2021/03/14 07:32:49;;;;;;;19.40;4.47;;;5.40;96.20;;;;;;5034901;28;20036;-68
2021/03/14 07:35:15;;;;;;;23.17;3.72;;;5.40;96.20;;;;;;5036636;28;20017;-68
2021/03/14 07:37:44;;;;;;;23.13;4.10;;;5.40;96.00;;;;;;5034048;28;20529;-68
2021/03/14 07:40:12;;;;;;;23.65;4.60;;;5.50;95.80;;;;;;5036543;28;20029;-68
2021/03/14 07:42:39;;;;;;;16.60;3.83;;;5.50;95.70;;;;;;5032266;28;20026;-68
2021/03/14 07:45:07;;;;;;;20.48;3.92;;;5.50;95.70;;;;;;5036215;28;20058;-68
2021/03/14 07:47:36;;;;;;;24.88;3.95;;;5.40;95.30;;;;;;5037581;28;20392;-69
2021/03/14 07:50:06;;;;;;;13.27;4.28;;;5.50;95.50;;;;;;5038774;28;20090;-68
2021/03/14 07:52:32;;;;;;;19.80;5.15;;;5.50;95.80;;;;;;5035390;28;20512;-68
2021/03/14 07:55:01;;;;;;;17.77;3.80;;;5.50;95.30;;;;;;5038974;28;20025;-68
2021/03/14 07:57:29;;;;;;;15.93;3.47;;;5.50;95.60;;;;;;5034570;28;20021;-68
2021/03/14 07:59:57;;;;;;;21.60;3.53;;;5.60;95.30;;;;;;5037385;28;20033;-68
2021/03/14 08:02:26;;;;;;;12.55;3.83;;;5.60;95.30;;;;;;5032578;28;20048;-68
2021/03/14 08:05:00;;;;;;;18.92;3.60;;;5.70;95.30;;;;;;5035003;28;20468;-68
2021/03/14 08:07:35;;;;;;;20.58;4.30;;;5.70;95.10;;;;;;5034231;28;20495;-68
2021/03/14 08:10:02;;;;;;;14.90;3.60;;;5.80;94.80;;;;;;5037578;28;20033;-68
2021/03/14 08:12:40;;;;;;;20.95;3.67;;;5.80;95.10;;;;;;5035646;28;20026;-68
2021/03/14 08:15:26;;;;;;;14.77;3.22;;;5.80;95.20;;;;;;5033415;28;20113;-68
2021/03/14 08:17:55;;;;;;;19.02;4.85;;;5.90;95.50;;;;;;5032996;28;20033;-68
2021/03/14 08:20:41;;;;;;;15.77;3.15;;;5.90;95.10;;;;;;5035958;28;20029;-68
2021/03/14 08:23:18;;;;;;;17.55;4.22;;;5.90;95.30;;;;;;5033417;28;20055;-68
2021/03/14 08:25:50;;;;;;;14.57;2.90;;;6.00;94.80;;;;;;5034045;28;20029;-68
2021/03/14 08:28:26;;;;;;;13.15;3.20;;;6.00;95.40;;;;;;5038845;28;20029;-68
2021/03/14 08:30:57;;;;;;;15.13;3.25;;;6.30;95.30;;;;;;5032580;28;20083;-68
2021/03/14 08:33:26;;;;;;;20.17;3.80;;;6.30;94.30;;;;;;5035832;28;20033;-68
2021/03/14 08:35:55;;;;;;;13.95;3.22;;;6.30;94.00;;;;;;5036480;28;20029;-68
2021/03/14 08:38:26;;;;;;;13.60;3.83;;;6.30;93.70;;;;;;5034451;28;20022;-68
2021/03/14 08:41:27;;;;;;;16.10;3.55;;;6.30;93.70;;;;;;5037894;28;20598;-68
2021/03/14 08:44:04;;;;;;;16.75;3.35;;;6.30;93.80;;;;;;5034899;28;20063;-68
2021/03/14 08:46:48;;;;;;;17.65;3.20;;;6.20;94.40;;;;;;5029972;28;20133;-69
2021/03/14 08:49:15;;;;;;;19.88;3.10;;;6.30;93.70;;;;;;5033090;28;20082;-68
2021/03/14 08:51:41;;;;;;;14.02;3.15;;;6.30;93.00;;;;;;5034409;28;20028;-68
2021/03/14 08:54:08;;;;;;;14.02;2.92;;;6.30;93.40;;;;;;5036399;28;20401;-69
2021/03/14 08:56:33;;;;;;;15.23;2.75;;;6.30;92.80;;;;;;5031336;28;20029;-68
2021/03/14 08:59:15;;;;;;;24.27;2.78;;;6.40;92.90;;;;;;5036393;28;20048;-68
2021/03/14 09:01:43;;;;;;;13.70;2.85;;;6.40;93.00;;;;;;5034904;28;20030;-68
2021/03/14 09:04:17;;;;;;;9.45;2.22;;;6.40;92.90;;;;;;5035399;28;20035;-69
2021/03/14 09:06:43;;;;;;;13.88;2.63;;;6.50;92.60;;;;;;5033196;28;20053;-68
2021/03/14 09:09:10;;;;;;;12.75;2.22;;;6.50;92.80;;;;;;5035873;28;20108;-69
2021/03/14 09:11:54;;;;;;;8.57;2.05;;;6.50;92.20;;;;;;5035779;28;20041;-69
2021/03/14 09:14:35;;;;;;;13.52;2.72;;;6.50;92.60;;;;;;5039081;28;20064;-68
2021/03/14 09:17:15;;;;;;;10.93;2.75;;;6.50;92.50;;;;;;5031164;28;20479;-69
2021/03/14 09:19:46;;;;;;;8.52;1.98;;;6.70;91.80;;;;;;5034029;28;20029;-68
2021/03/14 09:22:11;;;;;;;15.67;2.23;;;6.60;92.30;;;;;;5035316;28;20041;-68
2021/03/14 09:24:40;;;;;;;11.05;2.50;;;6.70;91.90;;;;;;5029973;28;20029;-68
2021/03/14 09:27:13;;;;;;;12.43;2.53;;;6.70;91.90;;;;;;5037342;28;20475;-68
2021/03/14 09:29:53;;;;;;;12.10;2.47;;;6.70;91.40;;;;;;5034593;28;20171;-68
2021/03/14 09:32:30;;;;;;;10.30;1.80;;;6.80;91.50;;;;;;5029898;28;20041;-69
2021/03/14 09:35:24;;;;;;;11.35;1.75;;;6.80;91.60;;;;;;5033992;28;20116;-68
2021/03/14 09:37:59;;;;;;;6.18;1.50;;;6.90;91.80;;;;;;5031320;28;20504;-68
2021/03/14 09:40:32;;;;;;;12.75;1.63;;;6.90;91.60;;;;;;5037546;28;20048;-68
2021/03/14 09:43:18;;;;;;;16.15;2.20;;;6.90;91.80;;;;;;5033388;28;20033;-68
2021/03/14 09:45:50;;;;;;;13.65;2.20;;;7.00;92.00;;;;;;5030017;28;20101;-68
2021/03/14 09:48:37;;;;;;;9.30;1.75;;;7.10;91.10;;;;;;5032908;28;20033;-68
2021/03/14 09:51:10;;;;;;;10.98;1.80;;;7.10;90.70;;;;;;5031516;28;20052;-68
2021/03/14 09:53:38;;;;;;;11.32;1.98;;;7.20;90.70;;;;;;5033557;28;20411;-68
2021/03/14 09:56:10;;;;;;;9.32;2.38;;;7.30;90.50;;;;;;5038158;28;20022;-68
2021/03/14 09:58:36;;;;;;;;;;;7.30;89.60;;;;;;5040760;28;20025;-69
2021/03/14 10:01:06;;;;;;;11.98;1.77;;;7.30;90.20;;;;;;5036766;28;20798;-69
2021/03/14 10:03:33;;;;;;;15.60;1.90;;;7.30;90.60;;;;;;5034768;28;20037;-70
2021/03/14 10:06:03;;;;;;;9.35;1.90;;;7.50;90.00;;;;;;5035191;28;20053;-70
2021/03/14 10:08:37;;;;;;;15.53;2.20;;;7.50;88.60;;;;;;5037375;28;20064;-70
2021/03/14 10:11:12;;;;;;;16.00;2.83;;;7.60;88.10;;;;;;5035870;28;20064;-70
2021/03/14 10:13:39;;;;;;;21.60;2.20;;;7.50;88.60;;;;;;5044591;28;20029;-69
2021/03/14 10:16:10;;;;;;;7.97;1.02;;;7.40;90.90;;;;;;5038368;28;20021;-69
2021/03/14 10:18:36;;;;;;;9.52;1.75;;;7.00;91.10;;;;;;5039471;28;20034;-68
2021/03/14 10:21:23;;;;;;;9.50;1.70;;;6.80;91.80;;;;;;5038409;28;20032;-69
2021/03/14 10:23:50;;;;;;;13.88;1.73;;;6.60;93.00;;;;;;5039345;28;20021;-68
2021/03/14 10:26:16;;;;;;;15.05;1.98;;;6.60;94.00;;;;;;5039379;28;20090;-68
2021/03/14 10:28:47;;;;;;;14.95;2.80;;;6.70;94.40;;;;;;5035490;28;20029;-69
2021/03/14 10:31:14;;;;;;;18.10;1.98;;;6.80;94.30;;;;;;5036089;28;20064;-69
2021/03/14 10:33:42;;;;;;;12.98;1.92;;;6.90;94.50;;;;;;5041600;28;20036;-67
2021/03/14 10:36:09;;;;;;;17.70;2.45;;;7.00;94.20;;;;;;5040985;28;20494;-69
2021/03/14 10:38:38;;;;;;;18.63;2.47;;;7.00;94.80;;;;;;5039897;28;20627;-72
2021/03/14 10:41:14;;;;;;;16.05;2.40;;;7.20;95.50;;;;;;5044851;28;20103;-69
2021/03/14 10:43:52;;;;;;;11.07;2.50;;;7.40;95.80;;;;;;5042030;28;20029;-69
2021/03/14 10:46:46;;;;;;;13.18;2.08;;;7.50;94.50;;;;;;5040217;28;20087;-68
2021/03/14 10:49:23;;;;;;;11.95;1.98;;;7.40;93.60;;;;;;5039942;28;20112;-69
2021/03/14 10:51:52;;;;;;;11.10;2.25;;;7.30;93.80;;;;;;5040260;28;20055;-69
2021/03/14 10:54:39;;;;;;;9.50;1.52;;;7.20;94.20;;;;;;5041620;28;20021;-69
2021/03/14 10:57:15;;;;;;;14.48;2.38;;;7.00;94.80;;;;;;5036945;28;20022;-69
2021/03/14 10:59:40;;;;;;;13.23;2.63;;;6.90;94.60;;;;;;5039190;28;20037;-70
2021/03/14 11:02:12;;;;;;;10.00;1.92;;;6.80;95.10;;;;;;5034435;28;20033;-69
2021/03/14 11:04:38;;;;;;;15.00;2.55;;;6.70;95.10;;;;;;5038602;28;20091;-68
2021/03/14 11:07:28;;;;;;;11.75;1.90;;;6.70;95.70;;;;;;5025505;28;20053;-69
2021/03/14 11:10:10;;;;;;;11.82;2.05;;;6.70;95.90;;;;;;5039345;28;20033;-68
2021/03/14 11:12:39;;;;;;;12.02;3.13;;;6.70;95.70;;;;;;5044924;28;20052;-69
2021/03/14 11:15:06;;;;;;;10.48;2.92;;;6.70;95.70;;;;;;5041658;28;20026;-69
2021/03/14 11:17:37;;;;;;;11.77;3.35;;;6.80;96.50;;;;;;5040594;28;20032;-69
2021/03/14 11:20:07;;;;;;;16.60;3.60;;;7.20;97.50;;;;;;5037989;28;20130;-69
2021/03/14 11:22:33;;;;;;;12.50;2.22;;;8.30;97.10;;;;;;5039909;28;20033;-69
2021/03/14 11:25:01;;;;;;;8.48;2.00;;;9.10;95.00;;;;;;5031743;28;20916;-68
2021/03/14 11:27:27;;;;;;;11.95;2.45;;;10.00;92.70;;;;;;5038307;28;20043;-69
2021/03/14 11:29:52;;;;;;;10.18;2.08;;;10.50;92.70;;;;;;5040022;28;20487;-69
2021/03/14 11:32:18;;;;;;;10.38;2.63;;;10.70;93.60;;;;;;5037678;28;20927;-69
2021/03/14 11:34:46;;;;;;;7.55;1.48;;;11.30;91.20;;;;;;5037093;28;20029;-69
2021/03/14 11:37:14;;;;;;;8.30;1.80;;;11.50;92.00;;;;;;5037157;28;20107;-69
2021/03/14 11:39:40;;;;;;;8.90;2.03;;;11.40;84.50;;;;;;5037695;28;20049;-69
2021/03/14 11:42:07;;;;;;;10.25;1.90;;;10.90;87.40;;;;;;5037364;28;20029;-69
2021/03/14 11:44:33;;;;;;;7.10;1.83;;;10.40;91.40;;;;;;5039925;28;20171;-68
2021/03/14 11:46:59;;;;;;;9.18;2.50;;;10.60;90.50;;;;;;5041117;28;20092;-69
2021/03/14 11:49:25;;;;;;;14.30;2.38;;;10.80;86.90;;;;;;5042306;28;20032;-70
2021/03/14 11:51:52;;;;;;;11.70;2.35;;;10.80;82.80;;;;;;5057753;22;20669;-73
2021/03/14 11:54:18;;;;;;;14.85;2.92;;;10.50;89.60;;;;;;5010699;28;20037;-74
2021/03/14 11:56:45;;;;;;;12.80;2.28;;;10.20;90.00;;;;;;5011007;28;20026;-73
2021/03/14 11:59:11;;;;;;;10.10;2.05;;;10.00;91.30;;;;;;5009232;28;20034;-74
2021/03/14 12:01:37;;;;;;;11.95;2.45;;;9.90;89.90;;;;;;5005373;28;20061;-75
2021/03/14 12:04:03;;;;;;;10.18;2.00;;;9.70;91.20;;;;;;5009246;28;20030;-74
2021/03/14 12:06:29;;;;;;;15.68;2.58;;;9.60;90.50;;;;;;5008222;28;20030;-74
2021/03/14 12:08:55;;;;;;;9.18;2.45;;;9.40;90.40;;;;;;5005447;28;20533;-74
2021/03/14 12:11:21;;;;;;;12.82;2.45;;;9.40;89.50;;;;;;5010079;28;20029;-73
2021/03/14 12:13:47;;;;;;;9.80;2.25;;;9.60;89.60;;;;;;5009114;28;20076;-75
2021/03/14 12:16:13;;;;;;;11.88;2.50;;;9.80;90.10;;;;;;5003938;28;20395;-75
2021/03/14 12:18:39;;;;;;;13.23;1.88;;;9.90;90.30;;;;;;5012166;28;20391;-75
2021/03/14 12:21:05;;;;;;;12.73;2.00;;;10.00;90.80;;;;;;5010715;28;20117;-74
2021/03/14 12:23:37;;;;;;;8.38;1.60;;;10.10;85.40;;;;;;5007135;28;20037;-73
2021/03/14 12:26:07;;;;;;;10.02;1.77;;;10.00;86.90;;;;;;5005700;28;20038;-73
2021/03/14 12:28:34;;;;;;;8.10;1.67;;;9.80;83.90;;;;;;5006466;28;20057;-74
2021/03/14 12:31:08;;;;;;;12.77;2.97;;;9.60;86.40;;;;;;5007818;28;20030;-75
2021/03/14 12:33:34;;;;;;;12.60;2.08;;;9.60;90.10;;;;;;5009093;28;20075;-72
2021/03/14 12:36:00;;;;;;;15.35;3.13;;;9.40;85.70;;;;;;5008588;28;20029;-73
2021/03/14 12:38:26;;;;;;;8.65;1.88;;;9.30;85.30;;;;;;5008834;28;20053;-72
2021/03/14 12:40:53;;;;;;;9.88;1.73;;;9.30;85.40;;;;;;5011591;28;20026;-73
2021/03/14 12:43:20;;;;;;;13.30;1.90;;;9.20;86.90;;;;;;5008804;28;20038;-72
2021/03/14 12:45:49;;;;;;;10.13;1.63;;;9.20;87.10;;;;;;5003713;28;20453;-72
2021/03/14 12:48:17;;;;;;;9.63;1.85;;;9.10;87.30;;;;;;5005877;28;20080;-73
2021/03/14 12:50:43;;;;;;;8.13;1.73;;;9.20;87.20;;;;;;5009112;28;20109;-73
2021/03/14 12:53:09;;;;;;;12.55;1.88;;;9.30;83.90;;;;;;5005544;28;20112;-73
2021/03/14 12:55:35;;;;;;;15.02;2.75;;;9.40;82.90;;;;;;5008292;28;20022;-74
2021/03/14 12:58:01;;;;;;;11.68;2.17;;;9.40;83.90;;;;;;5008350;28;20113;-74
2021/03/14 13:00:27;;;;;;;11.55;1.92;;;9.30;83.50;;;;;;5014599;28;20049;-74